Terminal Aerodrome Forecast
Issued by NWS

Home | Current Version | Previous Version | Graphics & Text | Print | Product List | Glossary On
Versions: 1 2 3 4 5 6 7 8 9 10 11 12 13 14 15 16 17 18 19 20
000
FTUS43 KMPX 221100
TAFRWF
TAF
KRWF 221139Z 2212/2312 20010KT 6SM BR SCT150
     FM221300 20008KT 6SM BR OVC010
     FM221500 20008KT 4SM BR OVC005
     FM222200 18009KT P6SM SCT008 BKN200
     FM230600 19008KT 4SM BR SCT150=

USA.gov is the U.S. government's official web portal to all federal, state and local government web resources and services.